createdAt,value
2018-12-18T00:00:57.048Z,91.39
2018-12-18T00:03:24.555Z,91.72
2018-12-18T00:05:52.084Z,91.41
2018-12-18T00:08:19.561Z,92.45
2018-12-18T00:10:48.982Z,91.72
2018-12-18T00:13:16.490Z,92.17
2018-12-18T00:15:43.978Z,91.67
2018-12-18T00:18:11.430Z,92.04
2018-12-18T00:20:38.891Z,91.63
2018-12-18T00:23:06.371Z,92.47
2018-12-18T00:25:33.942Z,92.30
2018-12-18T00:28:01.410Z,92.76
2018-12-18T00:30:28.862Z,92.46
2018-12-18T00:32:56.377Z,92.72
2018-12-18T00:35:23.823Z,92.37
2018-12-18T00:37:51.288Z,92.07
2018-12-18T00:40:18.798Z,92.70
2018-12-18T00:42:46.235Z,92.50
2018-12-18T00:45:13.729Z,92.10
2018-12-18T00:47:41.219Z,92.41
2018-12-18T00:50:08.852Z,92.05
2018-12-18T00:52:36.301Z,91.50
2018-12-18T00:55:04.785Z,91.31
2018-12-18T00:57:32.303Z,91.72
2018-12-18T00:59:59.833Z,92.29
2018-12-18T01:02:27.310Z,91.45
2018-12-18T01:04:54.784Z,92.11
2018-12-18T01:07:22.268Z,92.10
2018-12-18T01:09:49.731Z,91.96
2018-12-18T01:12:17.262Z,91.84
2018-12-18T01:14:44.743Z,92.36
2018-12-18T01:17:12.317Z,92.01
2018-12-18T01:19:39.777Z,91.62
2018-12-18T01:22:07.260Z,91.63
2018-12-18T01:24:34.731Z,92.63
2018-12-18T01:27:02.188Z,92.26
2018-12-18T01:29:29.674Z,91.99
2018-12-18T01:31:57.164Z,91.85
2018-12-18T01:34:24.641Z,91.84
2018-12-18T01:36:52.148Z,91.22
2018-12-18T01:39:19.774Z,91.59
2018-12-18T01:41:47.262Z,92.29
2018-12-18T01:44:14.732Z,91.99
2018-12-18T01:46:42.170Z,92.29
2018-12-18T01:49:09.662Z,92.71
2018-12-18T01:51:37.112Z,93.05
2018-12-18T01:54:04.591Z,92.84
2018-12-18T01:56:32.038Z,92.96
2018-12-18T01:58:59.505Z,92.72
2018-12-18T02:01:26.973Z,92.88
2018-12-18T02:03:54.433Z,93.10
2018-12-18T02:06:21.893Z,92.67
2018-12-18T02:08:49.351Z,93.50
2018-12-18T02:11:16.823Z,92.57
2018-12-18T02:13:44.309Z,92.46
2018-12-18T02:16:11.765Z,92.41
2018-12-18T02:18:39.265Z,92.70
2018-12-18T02:21:06.729Z,92.53
2018-12-18T02:23:34.213Z,92.27
2018-12-18T02:26:01.763Z,92.75
2018-12-18T02:28:29.247Z,92.19
2018-12-18T02:30:56.713Z,92.99
2018-12-18T02:33:24.177Z,92.82
2018-12-18T02:35:51.727Z,92.84
2018-12-18T02:38:19.213Z,93.80
2018-12-18T02:40:46.670Z,93.36
2018-12-18T02:43:14.197Z,93.79
2018-12-18T02:45:41.650Z,93.15
2018-12-18T02:48:09.185Z,92.93
2018-12-18T02:50:36.689Z,93.54
2018-12-18T02:53:04.161Z,93.95
2018-12-18T02:55:31.641Z,93.43
2018-12-18T02:57:59.115Z,93.00
2018-12-18T03:00:26.725Z,93.40
2018-12-18T03:02:54.193Z,93.52
2018-12-18T03:05:21.684Z,94.37
2018-12-18T03:07:49.232Z,93.75
2018-12-18T03:10:16.710Z,94.63
2018-12-18T03:12:44.182Z,93.71
2018-12-18T03:15:11.690Z,94.40
2018-12-18T03:17:39.154Z,94.33
2018-12-18T03:20:07.334Z,93.79
2018-12-18T03:22:34.787Z,94.23
2018-12-18T03:25:02.271Z,94.24
2018-12-18T03:27:29.750Z,94.34
2018-12-18T03:29:57.223Z,94.56
2018-12-18T03:32:26.356Z,93.72
2018-12-18T03:34:53.999Z,93.89
2018-12-18T03:37:21.468Z,94.44
2018-12-18T03:39:48.967Z,93.91
2018-12-18T03:42:16.446Z,94.46
2018-12-18T03:44:43.916Z,94.50
2018-12-18T03:47:11.437Z,94.41
2018-12-18T03:49:38.904Z,94.35
2018-12-18T03:52:06.453Z,94.33
2018-12-18T03:54:33.940Z,94.80
2018-12-18T03:57:01.448Z,95.68
2018-12-18T03:59:28.953Z,95.82
2018-12-18T04:01:56.462Z,95.60
2018-12-18T04:04:23.914Z,95.47
2018-12-18T04:06:51.376Z,96.81
2018-12-18T04:09:18.841Z,96.95
2018-12-18T04:14:49.936Z,97.03
2018-12-18T04:17:17.427Z,97.01
2018-12-18T04:19:44.938Z,96.35
2018-12-18T04:22:12.537Z,96.72
2018-12-18T04:24:40.024Z,96.66
2018-12-18T04:27:07.500Z,97.56
2018-12-18T04:29:35.036Z,97.31
2018-12-18T04:32:02.527Z,97.43
2018-12-18T04:34:29.986Z,96.99
2018-12-18T04:36:57.435Z,97.27
2018-12-18T04:39:24.911Z,97.83
2018-12-18T04:41:52.418Z,97.97
2018-12-18T04:44:20.030Z,98.68
2018-12-18T04:46:47.491Z,97.78
2018-12-18T04:49:14.944Z,97.89
2018-12-18T04:51:42.403Z,98.66
2018-12-18T04:54:09.856Z,98.30
2018-12-18T04:56:38.575Z,97.74
2018-12-18T04:59:06.027Z,98.65
2018-12-18T05:01:33.551Z,98.67
2018-12-18T05:04:01.046Z,98.23
2018-12-18T05:06:28.546Z,98.32
2018-12-18T05:08:56.054Z,98.73
2018-12-18T05:11:23.576Z,98.23
2018-12-18T05:13:51.053Z,99.03
2018-12-18T05:16:18.543Z,98.45
2018-12-18T05:18:46.040Z,98.85
2018-12-18T05:21:13.572Z,97.69
2018-12-18T05:23:41.060Z,98.49
2018-12-18T05:26:08.538Z,98.10
2018-12-18T05:28:36.011Z,98.80
2018-12-18T05:31:03.538Z,99.09
2018-12-18T05:33:31.026Z,99.19
2018-12-18T05:35:58.502Z,98.58
2018-12-18T05:38:25.962Z,99.05
2018-12-18T05:40:53.438Z,97.74
2018-12-18T05:43:20.910Z,98.22
2018-12-18T05:45:48.359Z,98.03
2018-12-18T05:48:15.822Z,98.64
2018-12-18T05:50:43.441Z,98.28
2018-12-18T05:53:11.079Z,98.35
2018-12-18T05:55:38.548Z,98.04
2018-12-18T05:58:06.026Z,99.16
2018-12-18T06:00:33.478Z,99.33
2018-12-18T06:03:00.955Z,98.53
2018-12-18T06:05:28.426Z,98.88
2018-12-18T06:07:55.930Z,98.80
2018-12-18T06:10:23.541Z,97.99
2018-12-18T06:12:51.064Z,98.64
2018-12-18T06:15:18.579Z,97.65
2018-12-18T06:17:46.069Z,97.62
2018-12-18T06:20:13.551Z,98.50
2018-12-18T06:22:41.054Z,98.63
2018-12-18T06:25:08.526Z,98.47
2018-12-18T06:27:36.007Z,97.11
2018-12-18T06:30:03.545Z,96.23
2018-12-18T06:32:31.050Z,95.87
2018-12-18T06:34:58.559Z,96.00
2018-12-18T06:37:26.029Z,95.84
2018-12-18T06:39:53.477Z,95.86
2018-12-18T06:42:20.984Z,95.35
2018-12-18T06:44:48.475Z,95.92
2018-12-18T06:47:15.984Z,94.95
2018-12-18T06:49:43.451Z,95.61
2018-12-18T06:52:10.955Z,95.15
2018-12-18T06:54:38.483Z,95.60
2018-12-18T06:57:06.024Z,94.60
2018-12-18T06:59:33.512Z,94.18
2018-12-18T07:02:01.016Z,94.19
2018-12-18T07:04:28.637Z,94.63
2018-12-18T07:06:56.088Z,94.19
2018-12-18T07:09:23.612Z,94.23
2018-12-18T07:11:51.079Z,94.94
2018-12-18T07:14:18.587Z,94.47
2018-12-18T07:16:46.056Z,94.79
2018-12-18T07:19:13.593Z,94.44
2018-12-18T07:21:41.072Z,94.99
2018-12-18T07:24:14.089Z,94.63
2018-12-18T07:26:38.153Z,94.32
2018-12-18T07:29:05.801Z,94.67
2018-12-18T07:31:33.286Z,94.18
2018-12-18T07:34:00.777Z,94.04
2018-12-18T07:36:28.279Z,94.05
2018-12-18T07:38:55.786Z,94.09
2018-12-18T07:41:23.258Z,93.63
2018-12-18T07:43:50.870Z,93.46
2018-12-18T07:46:18.368Z,94.22
2018-12-18T07:48:45.861Z,93.44
2018-12-18T07:51:13.356Z,93.50
2018-12-18T07:53:40.833Z,93.62
2018-12-18T07:56:08.348Z,93.63
2018-12-18T07:58:35.815Z,93.25
2018-12-18T08:01:03.309Z,93.29
2018-12-18T08:03:30.777Z,92.86
2018-12-18T08:05:58.244Z,93.11
2018-12-18T08:08:25.733Z,92.99
2018-12-18T08:10:53.282Z,92.57
2018-12-18T08:13:20.856Z,92.23
2018-12-18T08:15:48.336Z,92.59
2018-12-18T08:18:15.907Z,92.14
2018-12-18T08:20:43.385Z,92.82
2018-12-18T08:23:10.867Z,92.13
2018-12-18T08:25:38.329Z,92.24
2018-12-18T08:28:05.820Z,91.82
2018-12-18T08:30:33.312Z,91.57
2018-12-18T08:33:00.875Z,92.33
2018-12-18T08:35:28.427Z,92.73
2018-12-18T08:37:55.912Z,92.47
2018-12-18T08:40:23.427Z,92.31
2018-12-18T08:42:50.907Z,91.74
2018-12-18T08:45:18.401Z,91.30
2018-12-18T08:47:45.924Z,91.76
2018-12-18T08:50:13.947Z,90.92
2018-12-18T08:52:41.428Z,91.38
2018-12-18T08:55:08.934Z,90.57
2018-12-18T08:57:36.426Z,91.01
2018-12-18T09:00:06.434Z,90.91
2018-12-18T09:02:33.931Z,91.63
2018-12-18T09:05:01.454Z,91.31
2018-12-18T09:07:29.030Z,90.95
2018-12-18T09:09:56.528Z,90.77
2018-12-18T09:12:24.001Z,90.22
2018-12-18T09:14:57.612Z,90.95
2018-12-18T09:17:30.682Z,89.71
2018-12-18T09:19:58.195Z,90.23
2018-12-18T09:22:25.658Z,89.71
2018-12-18T09:24:53.134Z,89.90
2018-12-18T09:27:20.627Z,89.72
2018-12-18T09:29:48.152Z,89.11
2018-12-18T09:32:15.831Z,88.90
2018-12-18T09:34:43.414Z,89.39
2018-12-18T09:37:10.949Z,88.47
2018-12-18T09:39:41.888Z,88.76
2018-12-18T09:42:15.010Z,89.07
2018-12-18T09:44:42.520Z,89.34
2018-12-18T09:47:09.997Z,88.97
2018-12-18T09:49:37.541Z,88.71
2018-12-18T09:52:05.061Z,87.93
2018-12-18T09:54:32.625Z,88.14
2018-12-18T09:57:00.543Z,87.95
2018-12-18T09:59:28.002Z,88.38
2018-12-18T10:01:55.494Z,88.31
2018-12-18T10:04:23.119Z,88.17
2018-12-18T10:06:50.662Z,88.95
2018-12-18T10:09:18.135Z,88.40
2018-12-18T10:11:45.648Z,87.81
2018-12-18T10:14:13.143Z,88.11
2018-12-18T10:16:40.811Z,88.21
2018-12-18T10:19:08.270Z,87.94
2018-12-18T10:21:35.753Z,87.15
2018-12-18T10:24:03.211Z,86.54
2018-12-18T10:26:30.669Z,86.73
2018-12-18T10:28:58.154Z,86.99
2018-12-18T10:31:26.026Z,86.34
2018-12-18T10:33:53.522Z,86.13
2018-12-18T10:36:21.034Z,86.47
2018-12-18T10:38:48.498Z,86.83
2018-12-18T10:41:16.019Z,87.08
2018-12-18T10:43:43.484Z,86.68
2018-12-18T10:46:10.942Z,86.20
2018-12-18T10:48:38.413Z,85.74
2018-12-18T10:51:05.965Z,86.11
2018-12-18T10:53:33.439Z,85.38
2018-12-18T10:56:00.929Z,85.59
2018-12-18T10:58:28.403Z,85.49
2018-12-18T11:01:01.490Z,85.14
2018-12-18T11:03:29.036Z,85.66
2018-12-18T11:05:56.573Z,85.73
2018-12-18T11:08:24.147Z,85.20
2018-12-18T11:10:51.611Z,85.07
2018-12-18T11:13:19.511Z,85.70
2018-12-18T11:15:46.999Z,84.78
2018-12-18T11:18:14.598Z,85.25
2018-12-18T11:20:42.562Z,86.04
2018-12-18T11:23:10.069Z,86.23
2018-12-18T11:25:37.676Z,85.50
2018-12-18T11:28:05.250Z,85.91
2018-12-18T11:30:32.780Z,84.52
2018-12-18T11:33:00.406Z,85.50
2018-12-18T11:35:27.893Z,86.11
2018-12-18T11:37:55.404Z,86.22
2018-12-18T11:40:22.902Z,85.69
2018-12-18T11:42:50.464Z,85.33
2018-12-18T11:45:17.951Z,86.27
2018-12-18T11:47:45.428Z,85.24
2018-12-18T11:50:13.014Z,85.56
2018-12-18T11:52:40.502Z,85.84
2018-12-18T11:55:07.999Z,85.67
2018-12-18T11:57:35.499Z,85.12
2018-12-18T12:00:03.242Z,84.58
2018-12-18T12:02:30.795Z,83.90
2018-12-18T12:04:58.381Z,84.76
2018-12-18T12:07:25.872Z,83.88
2018-12-18T12:09:53.511Z,83.39
2018-12-18T12:12:20.978Z,83.12
2018-12-18T12:14:48.522Z,84.12
2018-12-18T12:17:16.219Z,84.00
2018-12-18T12:19:43.995Z,83.77
2018-12-18T12:22:11.495Z,84.09
2018-12-18T12:24:38.950Z,84.89
2018-12-18T12:27:12.099Z,84.87
2018-12-18T12:29:39.621Z,85.51
2018-12-18T12:32:07.063Z,85.29
2018-12-18T12:34:34.584Z,85.72
2018-12-18T12:37:02.158Z,85.77
2018-12-18T12:39:29.681Z,85.51
2018-12-18T12:41:57.154Z,85.24
2018-12-18T12:44:24.752Z,84.87
2018-12-18T12:46:52.230Z,85.56
2018-12-18T12:49:21.660Z,86.37
2018-12-18T12:51:49.117Z,86.64
2018-12-18T12:54:16.676Z,86.41
2018-12-18T12:56:44.146Z,86.99
2018-12-18T12:59:11.596Z,86.80
2018-12-18T13:01:42.075Z,87.35
2018-12-18T13:04:08.638Z,86.87
2018-12-18T13:06:36.591Z,86.80
2018-12-18T13:09:06.681Z,87.35
2018-12-18T13:11:34.137Z,86.41
2018-12-18T13:14:01.762Z,87.36
2018-12-18T13:16:29.228Z,87.15
2018-12-18T13:18:56.743Z,87.31
2018-12-18T13:21:24.467Z,87.84
2018-12-18T13:23:52.000Z,87.88
2018-12-18T13:26:19.515Z,87.48
2018-12-18T13:28:47.010Z,87.05
2018-12-18T13:31:14.483Z,87.25
2018-12-18T13:33:41.952Z,87.34
2018-12-18T13:36:09.437Z,87.13
2018-12-18T13:38:36.910Z,86.77
2018-12-18T13:41:04.404Z,87.79
2018-12-18T13:43:31.889Z,88.37
2018-12-18T13:45:59.357Z,89.12
2018-12-18T13:48:26.859Z,88.69
2018-12-18T13:50:54.434Z,89.26
2018-12-18T13:53:22.463Z,89.29
2018-12-18T13:55:49.929Z,90.23
2018-12-18T13:58:17.442Z,90.65
2018-12-18T14:00:44.988Z,91.24
2018-12-18T14:03:12.552Z,91.18
2018-12-18T14:05:40.052Z,90.87
2018-12-18T14:08:08.193Z,91.28
2018-12-18T14:10:39.561Z,91.70
2018-12-18T14:13:07.038Z,91.61
2018-12-18T14:15:34.595Z,91.51
2018-12-18T14:18:02.815Z,91.08
2018-12-18T14:20:31.594Z,90.95
2018-12-18T14:23:03.468Z,90.49
2018-12-18T14:25:31.479Z,90.60
2018-12-18T14:30:37.501Z,91.41
2018-12-18T14:33:05.127Z,90.28
2018-12-18T14:35:32.924Z,90.24
2018-12-18T14:38:00.425Z,90.76
2018-12-18T14:40:28.078Z,90.56
2018-12-18T14:42:56.378Z,90.53
2018-12-18T14:45:24.652Z,91.28
2018-12-18T14:47:56.050Z,90.73
2018-12-18T14:50:23.770Z,91.54
2018-12-18T14:52:51.302Z,91.37
2018-12-18T14:55:19.416Z,92.60
2018-12-18T14:57:50.930Z,92.62
2018-12-18T15:00:19.174Z,92.14
2018-12-18T15:02:47.307Z,92.26
2018-12-18T15:05:14.869Z,91.67
2018-12-18T15:07:43.771Z,92.34
2018-12-18T15:10:15.205Z,92.63
2018-12-18T15:12:45.232Z,93.30
2018-12-18T15:15:17.611Z,92.88
2018-12-18T15:17:45.253Z,93.66
2018-12-18T15:20:13.817Z,93.07
2018-12-18T15:22:41.406Z,93.46
2018-12-18T15:25:12.919Z,93.96
2018-12-18T15:27:41.082Z,93.48
2018-12-18T15:30:13.400Z,94.06
2018-12-18T15:32:41.540Z,93.31
2018-12-18T15:35:09.626Z,94.38
2018-12-18T15:37:38.342Z,94.07
2018-12-18T15:40:06.008Z,93.53
2018-12-18T15:42:33.529Z,93.08
2018-12-18T15:45:01.089Z,92.80
2018-12-18T15:47:28.663Z,93.21
2018-12-18T15:49:56.193Z,94.20
2018-12-18T15:52:23.848Z,94.36
2018-12-18T15:54:51.341Z,94.43
2018-12-18T15:57:19.711Z,95.49
2018-12-18T15:59:47.234Z,95.67
2018-12-18T16:02:14.715Z,96.74
2018-12-18T16:04:42.288Z,96.72
2018-12-18T16:07:15.929Z,96.64
2018-12-18T16:09:39.428Z,97.35
2018-12-18T16:12:06.933Z,96.73
2018-12-18T16:14:34.447Z,97.08
2018-12-18T16:17:02.828Z,97.79
2018-12-18T16:19:30.664Z,97.58
2018-12-18T16:21:58.633Z,97.58
2018-12-18T16:24:26.171Z,97.46
2018-12-18T16:26:53.644Z,97.06
2018-12-18T16:29:21.168Z,97.99
2018-12-18T16:31:48.679Z,97.47
2018-12-18T16:34:16.189Z,98.41
2018-12-18T16:36:50.161Z,98.00
2018-12-18T16:39:17.653Z,98.24
2018-12-18T16:41:45.154Z,99.07
2018-12-18T16:44:12.653Z,98.42
2018-12-18T16:46:40.172Z,98.77
2018-12-18T16:49:07.640Z,99.23
2018-12-18T16:51:35.168Z,99.27
2018-12-18T16:54:02.940Z,99.25
2018-12-18T16:56:30.497Z,99.89
2018-12-18T16:59:01.958Z,100.00
2018-12-18T17:01:29.457Z,99.80
2018-12-18T17:03:56.981Z,100.00
2018-12-18T17:06:24.490Z,100.00
2018-12-18T17:08:52.120Z,100.00
2018-12-18T17:11:19.688Z,99.60
2018-12-18T17:13:47.327Z,100.00
2018-12-18T17:16:14.816Z,99.84
2018-12-18T17:18:42.348Z,99.52
2018-12-18T17:21:09.835Z,99.20
2018-12-18T17:23:37.372Z,98.92
2018-12-18T17:26:04.860Z,99.91
2018-12-18T17:28:32.370Z,99.65
2018-12-18T17:31:00.424Z,99.57
2018-12-18T17:33:27.985Z,99.12
2018-12-18T17:35:55.631Z,98.99
2018-12-18T17:38:23.164Z,99.45
2018-12-18T17:40:50.800Z,98.98
2018-12-18T17:43:19.519Z,99.88
2018-12-18T17:45:47.036Z,99.95
2018-12-18T17:48:18.714Z,100.00
2018-12-18T17:50:46.215Z,100.00
2018-12-18T17:53:14.461Z,100.00
2018-12-18T17:55:41.983Z,100.00
2018-12-18T17:58:09.521Z,100.00
2018-12-18T18:00:37.016Z,99.66
2018-12-18T18:03:04.752Z,99.29
2018-12-18T18:05:32.238Z,99.30
2018-12-18T18:07:59.722Z,99.33
2018-12-18T18:10:27.225Z,99.79
2018-12-18T18:12:54.748Z,99.44
2018-12-18T18:15:22.410Z,99.19
2018-12-18T18:17:49.934Z,99.29
2018-12-18T18:20:17.503Z,99.03
2018-12-18T18:22:45.156Z,99.13
2018-12-18T18:25:12.642Z,98.99
2018-12-18T18:27:40.228Z,99.46
2018-12-18T18:30:07.803Z,99.65
2018-12-18T18:32:43.425Z,99.50
2018-12-18T18:35:10.938Z,99.66
2018-12-18T18:37:38.519Z,99.24
2018-12-18T18:40:07.503Z,99.02
2018-12-18T18:42:34.983Z,99.27
2018-12-18T18:45:02.542Z,99.49
2018-12-18T18:47:30.030Z,99.04
2018-12-18T18:49:57.586Z,98.91
2018-12-18T18:52:25.134Z,98.90
2018-12-18T18:54:52.772Z,99.34
2018-12-18T18:57:20.334Z,99.49
2018-12-18T18:59:47.853Z,99.96
2018-12-18T19:02:15.412Z,99.28
2018-12-18T19:04:42.979Z,99.93
2018-12-18T19:07:10.500Z,99.25
2018-12-18T19:09:38.000Z,99.43
2018-12-18T19:12:05.541Z,99.06
2018-12-18T19:14:33.196Z,99.69
2018-12-18T19:17:00.720Z,99.33
2018-12-18T19:19:28.300Z,99.83
2018-12-18T19:21:55.889Z,99.94
2018-12-18T19:24:23.415Z,100.00
2018-12-18T19:26:50.960Z,99.24
2018-12-18T19:29:18.464Z,99.22
2018-12-18T19:31:46.071Z,99.84
2018-12-18T19:34:14.347Z,99.40
2018-12-18T19:36:41.881Z,99.41
2018-12-18T19:39:09.430Z,99.41
2018-12-18T19:41:36.936Z,100.00
2018-12-18T19:44:04.479Z,100.00
2018-12-18T19:46:31.974Z,99.15
2018-12-18T19:48:59.483Z,99.79
2018-12-18T19:51:27.018Z,99.87
2018-12-18T19:53:54.593Z,100.00
2018-12-18T19:56:22.143Z,99.28
2018-12-18T19:58:49.665Z,99.73
2018-12-18T20:01:17.209Z,99.72
2018-12-18T20:03:44.794Z,98.89
2018-12-18T20:06:12.268Z,99.01
2018-12-18T20:08:39.799Z,99.57
2018-12-18T20:11:07.297Z,99.36
2018-12-18T20:13:34.842Z,99.19
2018-12-18T20:16:02.405Z,99.51
2018-12-18T20:18:30.040Z,99.22
2018-12-18T20:20:58.038Z,99.37
2018-12-18T20:23:25.681Z,99.42
2018-12-18T20:25:54.919Z,99.61
2018-12-18T20:28:22.465Z,99.70
2018-12-18T20:30:49.992Z,100.00
2018-12-18T20:33:17.570Z,99.74
2018-12-18T20:35:45.139Z,99.17
2018-12-18T20:38:16.876Z,99.52
2018-12-18T20:40:42.206Z,99.36
2018-12-18T20:43:10.656Z,99.43
2018-12-18T20:45:38.262Z,99.88
2018-12-18T20:48:05.778Z,99.69
2018-12-18T20:50:33.305Z,100.00
2018-12-18T20:53:00.963Z,99.62
2018-12-18T20:55:28.474Z,99.49
2018-12-18T20:57:56.044Z,99.59
2018-12-18T21:00:23.544Z,100.00
2018-12-18T21:02:51.040Z,99.79
2018-12-18T21:05:18.621Z,99.85
2018-12-18T21:07:46.295Z,99.73
2018-12-18T21:10:14.101Z,100.00
2018-12-18T21:12:41.679Z,99.88
2018-12-18T21:15:09.184Z,99.38
2018-12-18T21:17:36.759Z,99.78
2018-12-18T21:20:05.844Z,99.94
2018-12-18T21:22:33.340Z,99.63
2018-12-18T21:25:00.940Z,99.63
2018-12-18T21:27:28.486Z,99.51
2018-12-18T21:29:56.079Z,99.31
2018-12-18T21:32:23.584Z,99.24
2018-12-18T21:34:51.086Z,99.16
2018-12-18T21:37:18.578Z,98.93
2018-12-18T21:39:46.366Z,99.05
2018-12-18T21:42:14.561Z,99.34
2018-12-18T21:44:42.300Z,99.43
2018-12-18T21:47:09.872Z,99.69
2018-12-18T21:49:37.604Z,99.67
2018-12-18T21:52:06.114Z,99.79
2018-12-18T21:54:33.623Z,99.92
2018-12-18T21:57:01.161Z,99.60
2018-12-18T21:59:28.667Z,99.36
2018-12-18T22:01:56.176Z,99.46
2018-12-18T22:04:23.699Z,99.52
2018-12-18T22:06:51.184Z,99.55
2018-12-18T22:09:23.009Z,99.60
2018-12-18T22:11:50.530Z,99.58
2018-12-18T22:14:18.055Z,99.26
2018-12-18T22:16:45.536Z,99.68
2018-12-18T22:19:13.033Z,99.87
2018-12-18T22:21:40.518Z,99.74
2018-12-18T22:24:08.121Z,99.68
2018-12-18T22:26:35.787Z,99.86
2018-12-18T22:29:03.277Z,99.51
2018-12-18T22:31:30.756Z,99.32
2018-12-18T22:33:58.251Z,99.39
2018-12-18T22:36:25.787Z,99.62
2018-12-18T22:38:53.417Z,99.11
2018-12-18T22:41:20.907Z,99.39
2018-12-18T22:43:48.362Z,99.05
2018-12-18T22:46:15.885Z,99.27
2018-12-18T22:48:43.354Z,99.15
2018-12-18T22:51:10.834Z,99.31
2018-12-18T22:53:38.296Z,99.29
2018-12-18T22:56:05.789Z,99.06
2018-12-18T22:58:33.236Z,99.29
2018-12-18T23:01:04.468Z,99.11
2018-12-18T23:03:31.933Z,99.63
2018-12-18T23:05:59.406Z,99.29
2018-12-18T23:08:27.898Z,99.61
2018-12-18T23:10:55.423Z,99.73
2018-12-18T23:13:23.363Z,99.70
2018-12-18T23:15:51.171Z,99.37
2018-12-18T23:18:18.692Z,99.45
2018-12-18T23:20:46.222Z,99.53
2018-12-18T23:23:14.120Z,99.59
2018-12-18T23:25:41.601Z,99.77
2018-12-18T23:28:09.220Z,100.00
2018-12-18T23:30:36.790Z,99.67
2018-12-18T23:33:04.334Z,99.63
2018-12-18T23:35:31.827Z,99.93
2018-12-18T23:37:59.330Z,99.79
2018-12-18T23:40:26.828Z,99.33
2018-12-18T23:42:54.323Z,99.56
2018-12-18T23:45:22.432Z,98.78
2018-12-18T23:47:49.904Z,98.88
2018-12-18T23:50:17.412Z,99.07
2018-12-18T23:52:44.930Z,99.19
2018-12-18T23:55:12.484Z,99.22
2018-12-18T23:57:39.976Z,99.39
